sensor_id;sensor_type;location;lat;lon;timestamp;pressure;altitude;pressure_sealevel;temperature;humidity
57616;BME280;43816;52.054;-9.494;2023-05-12T00:00:00;101997.25;;;22.00;39.63
57616;BME280;43816;52.054;-9.494;2023-05-12T00:00:10;101986.25;;;21.92;39.61
57616;BME280;43816;52.054;-9.494;2023-05-12T00:00:21;102008.22;;;22.00;39.44
57616;BME280;43816;52.054;-9.494;2023-05-12T00:00:31;101996.72;;;21.96;39.77
57616;BME280;43816;52.054;-9.494;2023-05-12T00:00:42;102000.31;;;21.97;39.69
57616;BME280;43816;52.054;-9.494;2023-05-12T00:00:54;101995.84;;;21.96;39.54
57616;BME280;43816;52.054;-9.494;2023-05-12T00:01:05;101990.69;;;21.93;39.57
57616;BME280;43816;52.054;-9.494;2023-05-12T00:01:15;102007.34;;;21.99;39.56
57616;BME280;43816;52.054;-9.494;2023-05-12T00:01:25;101989.16;;;21.90;39.61
57616;BME280;43816;52.054;-9.494;2023-05-12T00:01:36;102005.81;;;21.97;39.70
57616;BME280;43816;52.054;-9.494;2023-05-12T00:01:46;101980.41;;;21.87;39.84
57616;BME280;43816;52.054;-9.494;2023-05-12T00:01:56;102009.94;;;22.01;39.72
57616;BME280;43816;52.054;-9.494;2023-05-12T00:02:07;101996.50;;;21.90;39.42
57616;BME280;43816;52.054;-9.494;2023-05-12T00:02:17;102010.25;;;21.98;39.74
57616;BME280;43816;52.054;-9.494;2023-05-12T00:02:27;101997.91;;;21.94;39.36
57616;BME280;43816;52.054;-9.494;2023-05-12T00:02:37;102003.06;;;21.97;39.60
57616;BME280;43816;52.054;-9.494;2023-05-12T00:02:48;102004.75;;;21.98;39.67
57616;BME280;43816;52.054;-9.494;2023-05-12T00:02:58;102007.50;;;21.98;39.58
57616;BME280;43816;52.054;-9.494;2023-05-12T00:03:08;102001.66;;;21.93;39.64
57616;BME280;43816;52.054;-9.494;2023-05-12T00:03:19;101999.63;;;21.95;39.63
57616;BME280;43816;52.054;-9.494;2023-05-12T00:03:29;102008.88;;;21.94;39.51
57616;BME280;43816;52.054;-9.494;2023-05-12T00:03:39;102010.59;;;21.95;39.62
57616;BME280;43816;52.054;-9.494;2023-05-12T00:03:49;102010.59;;;21.95;39.52
57616;BME280;43816;52.054;-9.494;2023-05-12T00:04:00;102000.66;;;21.94;39.52
57616;BME280;43816;52.054;-9.494;2023-05-12T00:04:10;101996.19;;;21.93;39.65
57616;BME280;43816;52.054;-9.494;2023-05-12T00:04:20;101974.00;;;21.78;39.62
57616;BME280;43816;52.054;-9.494;2023-05-12T00:04:31;101998.91;;;21.93;39.86
57616;BME280;43816;52.054;-9.494;2023-05-12T00:04:41;102003.22;;;21.95;39.39
57616;BME280;43816;52.054;-9.494;2023-05-12T00:04:52;102006.81;;;21.96;39.46
57616;BME280;43816;52.054;-9.494;2023-05-12T00:05:02;102003.72;;;21.91;39.54
57616;BME280;43816;52.054;-9.494;2023-05-12T00:05:13;102008.88;;;21.94;39.64
57616;BME280;43816;52.054;-9.494;2023-05-12T00:05:23;101999.06;;;21.91;39.38
57616;BME280;43816;52.054;-9.494;2023-05-12T00:05:33;101999.97;;;21.92;39.56
57616;BME280;43816;52.054;-9.494;2023-05-12T00:05:44;102003.72;;;21.91;39.58
57616;BME280;43816;52.054;-9.494;2023-05-12T00:05:54;102008.88;;;21.94;39.63
57616;BME280;43816;52.054;-9.494;2023-05-12T00:06:05;102005.13;;;21.95;39.34
57616;BME280;43816;52.054;-9.494;2023-05-12T00:06:15;102005.13;;;21.95;39.63
57616;BME280;43816;52.054;-9.494;2023-05-12T00:06:25;102007.13;;;21.93;39.61
57616;BME280;43816;52.054;-9.494;2023-05-12T00:06:35;102007.84;;;21.95;39.56
57616;BME280;43816;52.054;-9.494;2023-05-12T00:06:46;102012.28;;;21.96;39.33
57616;BME280;43816;52.054;-9.494;2023-05-12T00:06:56;102008.88;;;21.94;39.37
57616;BME280;43816;52.054;-9.494;2023-05-12T00:07:06;102007.13;;;21.93;39.53
57616;BME280;43816;52.054;-9.494;2023-05-12T00:07:17;102010.03;;;21.91;39.45
57616;BME280;43816;52.054;-9.494;2023-05-12T00:07:27;102004.06;;;21.96;39.44
57616;BME280;43816;52.054;-9.494;2023-05-12T00:07:37;102006.28;;;21.92;39.33
57616;BME280;43816;52.054;-9.494;2023-05-12T00:07:47;102002.13;;;21.88;39.59
57616;BME280;43816;52.054;-9.494;2023-05-12T00:07:58;102008.88;;;21.94;39.67
57616;BME280;43816;52.054;-9.494;2023-05-12T00:08:08;102013.50;;;21.93;39.38
57616;BME280;43816;52.054;-9.494;2023-05-12T00:08:18;102007.13;;;21.93;39.46
57616;BME280;43816;52.054;-9.494;2023-05-12T00:08:29;102003.88;;;21.89;39.51
57616;BME280;43816;52.054;-9.494;2023-05-12T00:08:39;102017.09;;;21.94;39.75
57616;BME280;43816;52.054;-9.494;2023-05-12T00:08:50;101999.41;;;21.88;39.67
57616;BME280;43816;52.054;-9.494;2023-05-12T00:09:00;102003.19;;;21.87;39.60
57616;BME280;43816;52.054;-9.494;2023-05-12T00:09:10;102008.19;;;21.92;39.60
57616;BME280;43816;52.054;-9.494;2023-05-12T00:09:20;101998.88;;;21.85;39.66
57616;BME280;43816;52.054;-9.494;2023-05-12T00:09:31;102021.56;;;21.95;39.61
57616;BME280;43816;52.054;-9.494;2023-05-12T00:09:41;102016.41;;;21.92;39.60
57616;BME280;43816;52.054;-9.494;2023-05-12T00:09:52;102001.28;;;21.88;39.42
57616;BME280;43816;52.054;-9.494;2023-05-12T00:10:03;102009.50;;;21.88;39.55
57616;BME280;43816;52.054;-9.494;2023-05-12T00:10:14;101992.50;;;21.76;39.66
57616;BME280;43816;52.054;-9.494;2023-05-12T00:10:26;102002.13;;;21.80;39.70
57616;BME280;43816;52.054;-9.494;2023-05-12T00:10:37;102016.72;;;21.89;39.56
57616;BME280;43816;52.054;-9.494;2023-05-12T00:10:47;102022.72;;;21.92;39.46
57616;BME280;43816;52.054;-9.494;2023-05-12T00:10:57;102017.41;;;21.91;39.56
57616;BME280;43816;52.054;-9.494;2023-05-12T00:11:08;102026.47;;;21.91;39.30
57616;BME280;43816;52.054;-9.494;2023-05-12T00:11:18;102021.88;;;21.92;39.60
57616;BME280;43816;52.054;-9.494;2023-05-12T00:11:29;102020.16;;;21.91;39.64
57616;BME280;43816;52.054;-9.494;2023-05-12T00:11:39;102016.72;;;21.89;39.48
57616;BME280;43816;52.054;-9.494;2023-05-12T00:11:49;102013.28;;;21.87;39.48
57616;BME280;43816;52.054;-9.494;2023-05-12T00:12:00;102029.94;;;21.93;39.49
57616;BME280;43816;52.054;-9.494;2023-05-12T00:12:11;102016.41;;;21.92;39.50
57616;BME280;43816;52.054;-9.494;2023-05-12T00:12:21;102029.38;;;21.90;39.72
57616;BME280;43816;52.054;-9.494;2023-05-12T00:12:31;102025.31;;;21.94;39.53
57616;BME280;43816;52.054;-9.494;2023-05-12T00:12:42;102027.50;;;21.90;39.57
57616;BME280;43816;52.054;-9.494;2023-05-12T00:12:52;102011.72;;;21.84;39.38
57616;BME280;43816;52.054;-9.494;2023-05-12T00:13:02;102018.75;;;21.87;39.51
57616;BME280;43816;52.054;-9.494;2023-05-12T00:13:13;102028.22;;;21.92;39.38
57616;BME280;43816;52.054;-9.494;2023-05-12T00:13:23;102022.19;;;21.89;39.69
57616;BME280;43816;52.054;-9.494;2023-05-12T00:13:34;102020.47;;;21.88;39.63
57616;BME280;43816;52.054;-9.494;2023-05-12T00:13:44;102020.47;;;21.88;39.51
57616;BME280;43816;52.054;-9.494;2023-05-12T00:13:54;102016.19;;;21.85;39.50
57616;BME280;43816;52.054;-9.494;2023-05-12T00:14:05;102017.88;;;21.86;39.40
57616;BME280;43816;52.054;-9.494;2023-05-12T00:14:16;102020.31;;;21.89;39.88
57616;BME280;43816;52.054;-9.494;2023-05-12T00:14:26;102028.22;;;21.92;39.41
57616;BME280;43816;52.054;-9.494;2023-05-12T00:14:37;102020.47;;;21.88;39.55
57616;BME280;43816;52.054;-9.494;2023-05-12T00:14:47;102034.84;;;21.90;39.57
57616;BME280;43816;52.054;-9.494;2023-05-12T00:14:57;102017.03;;;21.86;39.57
57616;BME280;43816;52.054;-9.494;2023-05-12T00:15:08;102024.06;;;21.88;39.37
57616;BME280;43816;52.054;-9.494;2023-05-12T00:15:19;102022.50;;;21.86;39.36
57616;BME280;43816;52.054;-9.494;2023-05-12T00:15:29;102023.38;;;21.86;39.52
57616;BME280;43816;52.054;-9.494;2023-05-12T00:15:40;102032.13;;;21.90;39.61
57616;BME280;43816;52.054;-9.494;2023-05-12T00:15:50;102030.41;;;21.89;39.69
57616;BME280;43816;52.054;-9.494;2023-05-12T00:16:01;102027.00;;;21.87;39.64
57616;BME280;43816;52.054;-9.494;2023-05-12T00:16:12;102030.25;;;21.90;39.62
57616;BME280;43816;52.054;-9.494;2023-05-12T00:16:22;102034.84;;;21.90;39.49
57616;BME280;43816;52.054;-9.494;2023-05-12T00:16:32;102009.44;;;21.79;39.71
57616;BME280;43816;52.054;-9.494;2023-05-12T00:16:45;102023.22;;;21.88;39.83
57616;BME280;43816;52.054;-9.494;2023-05-12T00:16:56;102020.47;;;21.88;39.68
57616;BME280;43816;52.054;-9.494;2023-05-12T00:17:06;102011.19;;;21.80;39.28
57616;BME280;43816;52.054;-9.494;2023-05-12T00:17:17;102025.25;;;21.86;39.49
57616;BME280;43816;52.054;-9.494;2023-05-12T00:17:27;102018.19;;;21.83;39.78
57616;BME280;43816;52.054;-9.494;2023-05-12T00:17:37;102010.81;;;21.75;39.76
57616;BME280;43816;52.054;-9.494;2023-05-12T00:17:48;102024.41;;;21.85;39.67
57616;BME280;43816;52.054;-9.494;2023-05-12T00:17:58;102019.41;;;21.80;39.61
57616;BME280;43816;52.054;-9.494;2023-05-12T00:18:08;102034.31;;;21.86;39.75
57616;BME280;43816;52.054;-9.494;2023-05-12T00:18:19;102026.59;;;21.81;39.98
57616;BME280;43816;52.054;-9.494;2023-05-12T00:18:29;102029.72;;;21.87;39.33
57616;BME280;43816;52.054;-9.494;2023-05-12T00:18:39;102018.38;;;21.81;39.67
57616;BME280;43816;52.054;-9.494;2023-05-12T00:18:50;102019.41;;;21.80;39.42
57616;BME280;43816;52.054;-9.494;2023-05-12T00:19:00;102028.69;;;21.88;39.64
57616;BME280;43816;52.054;-9.494;2023-05-12T00:19:10;102024.56;;;21.84;39.85
57616;BME280;43816;52.054;-9.494;2023-05-12T00:19:20;102028.69;;;21.88;39.70
57616;BME280;43816;52.054;-9.494;2023-05-12T00:19:33;102017.50;;;21.81;39.62
57616;BME280;43816;52.054;-9.494;2023-05-12T00:19:44;102011.66;;;21.76;39.67
57616;BME280;43816;52.054;-9.494;2023-05-12T00:19:54;102028.69;;;21.88;39.49
57616;BME280;43816;52.054;-9.494;2023-05-12T00:20:05;102032.28;;;21.88;39.45
57616;BME280;43816;52.054;-9.494;2023-05-12T00:20:15;102028.00;;;21.86;39.64
57616;BME280;43816;52.054;-9.494;2023-05-12T00:20:26;102033.16;;;21.89;39.54
57616;BME280;43816;52.054;-9.494;2023-05-12T00:20:37;102030.56;;;21.87;39.63
57616;BME280;43816;52.054;-9.494;2023-05-12T00:20:47;102036.91;;;21.88;39.30
57616;BME280;43816;52.054;-9.494;2023-05-12T00:20:57;102032.28;;;21.88;39.59
57616;BME280;43816;52.054;-9.494;2023-05-12T00:21:08;102023.16;;;21.79;39.43
57616;BME280;43816;52.054;-9.494;2023-05-12T00:21:18;102028.31;;;21.83;39.86
57616;BME280;43816;52.054;-9.494;2023-05-12T00:21:28;102025.56;;;21.83;39.64
57616;BME280;43816;52.054;-9.494;2023-05-12T00:21:38;102015.97;;;21.78;39.63
57616;BME280;43816;52.054;-9.494;2023-05-12T00:21:49;102025.72;;;21.81;39.32
57616;BME280;43816;52.054;-9.494;2023-05-12T00:21:59;102033.47;;;21.86;39.48
57616;BME280;43816;52.054;-9.494;2023-05-12T00:22:09;102029.16;;;21.83;39.57
57616;BME280;43816;52.054;-9.494;2023-05-12T00:22:20;102030.03;;;21.84;39.78
57616;BME280;43816;52.054;-9.494;2023-05-12T00:22:30;102026.59;;;21.81;39.90
57616;BME280;43816;52.054;-9.494;2023-05-12T00:22:40;102030.91;;;21.84;39.42
57616;BME280;43816;52.054;-9.494;2023-05-12T00:22:51;102038.63;;;21.89;39.51
57616;BME280;43816;52.054;-9.494;2023-05-12T00:23:01;102036.91;;;21.88;39.58
57616;BME280;43816;52.054;-9.494;2023-05-12T00:23:11;102034.31;;;21.86;39.63
57616;BME280;43816;52.054;-9.494;2023-05-12T00:23:21;102037.94;;;21.87;39.56
57616;BME280;43816;52.054;-9.494;2023-05-12T00:23:32;102037.75;;;21.88;39.59
57616;BME280;43816;52.054;-9.494;2023-05-12T00:23:42;102024.88;;;21.80;39.70
57616;BME280;43816;52.054;-9.494;2023-05-12T00:23:52;102033.78;;;21.83;39.45
57616;BME280;43816;52.054;-9.494;2023-05-12T00:24:03;102032.47;;;21.87;39.75
57616;BME280;43816;52.054;-9.494;2023-05-12T00:24:13;102037.38;;;21.83;39.62
57616;BME280;43816;52.054;-9.494;2023-05-12T00:24:24;102037.38;;;21.83;39.39
57616;BME280;43816;52.054;-9.494;2023-05-12T00:24:35;102036.38;;;21.84;39.63
57616;BME280;43816;52.054;-9.494;2023-05-12T00:24:45;102033.78;;;21.83;39.63
57616;BME280;43816;52.054;-9.494;2023-05-12T00:24:55;102016.28;;;21.75;39.51
57616;BME280;43816;52.054;-9.494;2023-05-12T00:25:06;102018.34;;;21.73;39.65
57616;BME280;43816;52.054;-9.494;2023-05-12T00:25:16;102046.84;;;21.89;39.67
57616;BME280;43816;52.054;-9.494;2023-05-12T00:25:27;102025.34;;;21.76;39.63
57616;BME280;43816;52.054;-9.494;2023-05-12T00:25:37;102035.84;;;21.80;39.59
57616;BME280;43816;52.054;-9.494;2023-05-12T00:25:47;102039.97;;;21.85;39.82
57616;BME280;43816;52.054;-9.494;2023-05-12T00:25:58;102033.09;;;21.80;39.61
57616;BME280;43816;52.054;-9.494;2023-05-12T00:26:08;102041.69;;;21.86;39.56
57616;BME280;43816;52.054;-9.494;2023-05-12T00:26:18;102048.72;;;21.88;39.49
57616;BME280;43816;52.054;-9.494;2023-05-12T00:26:29;102037.53;;;21.81;39.61
57616;BME280;43816;52.054;-9.494;2023-05-12T00:26:39;102035.38;;;21.85;39.70
57616;BME280;43816;52.054;-9.494;2023-05-12T00:26:49;102042.16;;;21.81;39.62
57616;BME280;43816;52.054;-9.494;2023-05-12T00:27:00;102055.41;;;21.86;39.42
57616;BME280;43816;52.054;-9.494;2023-05-12T00:27:10;102045.28;;;21.86;39.64
57616;BME280;43816;52.054;-9.494;2023-05-12T00:27:20;102028.94;;;21.76;39.75
57616;BME280;43816;52.054;-9.494;2023-05-12T00:27:31;102042.84;;;21.83;39.47
57616;BME280;43816;52.054;-9.494;2023-05-12T00:27:41;102054.53;;;21.85;39.81
57616;BME280;43816;52.054;-9.494;2023-05-12T00:27:51;102055.41;;;21.86;39.48
57616;BME280;43816;52.054;-9.494;2023-05-12T00:28:02;102054.53;;;21.85;39.74
57616;BME280;43816;52.054;-9.494;2023-05-12T00:28:12;102048.50;;;21.81;39.27
57616;BME280;43816;52.054;-9.494;2023-05-12T00:28:22;102042.47;;;21.78;39.58
57616;BME280;43816;52.054;-9.494;2023-05-12T00:28:32;102048.19;;;21.85;39.57
57616;BME280;43816;52.054;-9.494;2023-05-12T00:28:43;102054.69;;;21.84;39.37
57616;BME280;43816;52.054;-9.494;2023-05-12T00:28:53;102058.81;;;21.88;39.58
57616;BME280;43816;52.054;-9.494;2023-05-12T00:29:03;102049.22;;;21.84;39.77
57616;BME280;43816;52.054;-9.494;2023-05-12T00:29:13;102046.25;;;21.77;39.50
57616;BME280;43816;52.054;-9.494;2023-05-12T00:29:24;102061.72;;;21.86;39.56
57616;BME280;43816;52.054;-9.494;2023-05-12T00:29:34;102055.72;;;21.83;39.46
57616;BME280;43816;52.054;-9.494;2023-05-12T00:29:44;102056.03;;;21.79;39.40
57616;BME280;43816;52.054;-9.494;2023-05-12T00:29:55;102061.88;;;21.85;39.40
57616;BME280;43816;52.054;-9.494;2023-05-12T00:30:05;102059.13;;;21.85;39.43
57616;BME280;43816;52.054;-9.494;2023-05-12T00:30:16;102058.59;;;21.81;39.34
57616;BME280;43816;52.054;-9.494;2023-05-12T00:30:26;102054.16;;;21.80;39.47
57616;BME280;43816;52.054;-9.494;2023-05-12T00:30:36;102055.88;;;21.81;39.82
57616;BME280;43816;52.054;-9.494;2023-05-12T00:30:47;102061.03;;;21.84;39.94
57616;BME280;43816;52.054;-9.494;2023-05-12T00:31:01;102061.19;;;21.83;39.64
57616;BME280;43816;52.054;-9.494;2023-05-12T00:31:11;102062.03;;;21.83;39.45
57616;BME280;43816;52.054;-9.494;2023-05-12T00:31:21;102069.25;;;21.84;39.66
57616;BME280;43816;52.054;-9.494;2023-05-12T00:31:34;102065.28;;;21.78;39.58
57616;BME280;43816;52.054;-9.494;2023-05-12T00:31:45;102067.66;;;21.81;39.71
57616;BME280;43816;52.054;-9.494;2023-05-12T00:31:55;102058.59;;;21.81;39.69
57616;BME280;43816;52.054;-9.494;2023-05-12T00:32:05;102074.56;;;21.86;39.44
57616;BME280;43816;52.054;-9.494;2023-05-12T00:32:16;102049.31;;;21.74;39.65
57616;BME280;43816;52.054;-9.494;2023-05-12T00:32:26;102065.28;;;21.78;39.62
57616;BME280;43816;52.054;-9.494;2023-05-12T00:32:36;102053.22;;;21.71;39.54
57616;BME280;43816;52.054;-9.494;2023-05-12T00:32:47;102075.25;;;21.88;39.47
57616;BME280;43816;52.054;-9.494;2023-05-12T00:32:57;102073.16;;;21.81;39.23
57616;BME280;43816;52.054;-9.494;2023-05-12T00:33:07;102076.63;;;21.84;39.18
57616;BME280;43816;52.054;-9.494;2023-05-12T00:33:18;102074.88;;;21.83;39.43
57616;BME280;43816;52.054;-9.494;2023-05-12T00:33:29;102074.72;;;21.84;39.52
57616;BME280;43816;52.054;-9.494;2023-05-12T00:33:39;102081.22;;;21.83;39.71
57616;BME280;43816;52.054;-9.494;2023-05-12T00:33:50;102076.94;;;21.80;39.43
57616;BME280;43816;52.054;-9.494;2023-05-12T00:34:00;102073.88;;;21.84;39.35
57616;BME280;43816;52.054;-9.494;2023-05-12T00:34:10;102062.38;;;21.80;39.53
57616;BME280;43816;52.054;-9.494;2023-05-12T00:34:21;102073.00;;;21.83;39.69
57616;BME280;43816;52.054;-9.494;2023-05-12T00:34:31;102081.06;;;21.85;39.38
57616;BME280;43816;52.054;-9.494;2023-05-12T00:34:41;102063.00;;;21.74;39.72
57616;BME280;43816;52.054;-9.494;2023-05-12T00:34:52;102069.56;;;21.81;39.92
57616;BME280;43816;52.054;-9.494;2023-05-12T00:35:02;102065.28;;;21.78;39.77
57616;BME280;43816;52.054;-9.494;2023-05-12T00:35:13;102061.28;;;21.73;39.65
57616;BME280;43816;52.054;-9.494;2023-05-12T00:35:23;102078.31;;;21.85;39.59
57616;BME280;43816;52.054;-9.494;2023-05-12T00:35:33;102070.19;;;21.75;39.72
57616;BME280;43816;52.054;-9.494;2023-05-12T00:35:44;102078.63;;;21.81;39.62
57616;BME280;43816;52.054;-9.494;2023-05-12T00:35:54;102081.94;;;21.85;39.69
57616;BME280;43816;52.054;-9.494;2023-05-12T00:36:04;102077.94;;;21.79;39.75
57616;BME280;43816;52.054;-9.494;2023-05-12T00:36:17;102078.31;;;21.85;39.63
57616;BME280;43816;52.054;-9.494;2023-05-12T00:36:28;102077.31;;;21.86;39.44
57616;BME280;43816;52.054;-9.494;2023-05-12T00:36:38;102069.56;;;21.81;39.56
57616;BME280;43816;52.054;-9.494;2023-05-12T00:36:49;102078.47;;;21.83;39.68
57616;BME280;43816;52.054;-9.494;2023-05-12T00:36:59;102071.44;;;21.80;39.40
57616;BME280;43816;52.054;-9.494;2023-05-12T00:37:09;102072.47;;;21.79;39.61
57616;BME280;43816;52.054;-9.494;2023-05-12T00:37:20;102067.28;;;21.76;39.56
57616;BME280;43816;52.054;-9.494;2023-05-12T00:37:30;102076.63;;;21.84;39.63
57616;BME280;43816;52.054;-9.494;2023-05-12T00:37:40;102069.34;;;21.74;39.94
57616;BME280;43816;52.054;-9.494;2023-05-12T00:37:50;102069.88;;;21.78;39.40
57616;BME280;43816;52.054;-9.494;2023-05-12T00:38:01;102069.19;;;21.76;39.96
57616;BME280;43816;52.054;-9.494;2023-05-12T00:38:12;102073.34;;;21.80;39.54
57616;BME280;43816;52.054;-9.494;2023-05-12T00:38:22;102044.63;;;21.66;39.76
57616;BME280;43816;52.054;-9.494;2023-05-12T00:38:32;102073.34;;;21.80;39.67
57616;BME280;43816;52.054;-9.494;2023-05-12T00:38:43;102060.44;;;21.72;39.50
57616;BME280;43816;52.054;-9.494;2023-05-12T00:38:53;102069.88;;;21.78;39.62
57616;BME280;43816;52.054;-9.494;2023-05-12T00:39:03;102081.22;;;21.83;39.14
57616;BME280;43816;52.054;-9.494;2023-05-12T00:39:13;102055.13;;;21.71;39.60
57616;BME280;43816;52.054;-9.494;2023-05-12T00:39:24;102069.88;;;21.78;39.80
57616;BME280;43816;52.054;-9.494;2023-05-12T00:39:34;102065.28;;;21.78;39.60
57616;BME280;43816;52.054;-9.494;2023-05-12T00:39:44;102076.25;;;21.78;39.57
57616;BME280;43816;52.054;-9.494;2023-05-12T00:39:55;102067.28;;;21.76;39.82
57616;BME280;43816;52.054;-9.494;2023-05-12T00:40:06;102062.16;;;21.73;39.40
57616;BME280;43816;52.054;-9.494;2023-05-12T00:40:16;102071.78;;;21.77;39.74
57616;BME280;43816;52.054;-9.494;2023-05-12T00:40:26;102071.63;;;21.79;39.55
57616;BME280;43816;52.054;-9.494;2023-05-12T00:40:37;102081.06;;;21.85;39.41
57616;BME280;43816;52.054;-9.494;2023-05-12T00:40:47;102076.25;;;21.78;39.63
57616;BME280;43816;52.054;-9.494;2023-05-12T00:40:57;102058.69;;;21.71;39.50
57616;BME280;43816;52.054;-9.494;2023-05-12T00:41:08;102069.88;;;21.78;39.74
57616;BME280;43816;52.054;-9.494;2023-05-12T00:41:19;102068.88;;;21.79;39.58
57616;BME280;43816;52.054;-9.494;2023-05-12T00:41:29;102063.72;;;21.76;39.51
57616;BME280;43816;52.054;-9.494;2023-05-12T00:41:39;102074.88;;;21.83;39.34
57616;BME280;43816;52.054;-9.494;2023-05-12T00:41:57;102067.28;;;21.76;39.58
57616;BME280;43816;52.054;-9.494;2023-05-12T00:42:08;102081.06;;;21.85;39.77
57616;BME280;43816;52.054;-9.494;2023-05-12T00:42:18;102054.25;;;21.70;39.50
57616;BME280;43816;52.054;-9.494;2023-05-12T00:42:28;102073.88;;;21.84;39.52
57616;BME280;43816;52.054;-9.494;2023-05-12T00:42:38;102054.63;;;21.75;39.73
57616;BME280;43816;52.054;-9.494;2023-05-12T00:42:49;102050.66;;;21.70;39.86
57616;BME280;43816;52.054;-9.494;2023-05-12T00:42:59;102061.81;;;21.76;39.67
57616;BME280;43816;52.054;-9.494;2023-05-12T00:43:09;102060.50;;;21.80;39.68
57616;BME280;43816;52.054;-9.494;2023-05-12T00:43:20;102068.72;;;21.80;39.36
57616;BME280;43816;52.054;-9.494;2023-05-12T00:43:30;102049.78;;;21.69;39.53
57616;BME280;43816;52.054;-9.494;2023-05-12T00:43:40;102066.97;;;21.79;39.80
57616;BME280;43816;52.054;-9.494;2023-05-12T00:43:50;102069.56;;;21.81;39.48
57616;BME280;43816;52.054;-9.494;2023-05-12T00:44:01;102066.81;;;21.81;39.70
57616;BME280;43816;52.054;-9.494;2023-05-12T00:44:11;102069.56;;;21.81;39.72
57616;BME280;43816;52.054;-9.494;2023-05-12T00:44:22;102059.06;;;21.76;39.70
57616;BME280;43816;52.054;-9.494;2023-05-12T00:44:33;102059.97;;;21.77;39.51
57616;BME280;43816;52.054;-9.494;2023-05-12T00:44:44;102054.97;;;21.72;39.60
57616;BME280;43816;52.054;-9.494;2023-05-12T00:44:54;102064.41;;;21.78;39.90
57616;BME280;43816;52.054;-9.494;2023-05-12T00:45:05;102071.63;;;21.79;39.56
57616;BME280;43816;52.054;-9.494;2023-05-12T00:45:15;102063.56;;;21.77;39.73
57616;BME280;43816;52.054;-9.494;2023-05-12T00:45:26;102061.50;;;21.79;39.27
57616;BME280;43816;52.054;-9.494;2023-05-12T00:45:36;102064.94;;;21.81;39.64
57616;BME280;43816;52.054;-9.494;2023-05-12T00:45:47;102060.13;;;21.75;39.76
57616;BME280;43816;52.054;-9.494;2023-05-12T00:45:58;102073.34;;;21.80;39.48
57616;BME280;43816;52.054;-9.494;2023-05-12T00:46:08;102029.72;;;21.60;39.76
57616;BME280;43816;52.054;-9.494;2023-05-12T00:46:19;102063.94;;;21.83;40.08
57616;BME280;43816;52.054;-9.494;2023-05-12T00:46:30;102058.06;;;21.77;39.72
57616;BME280;43816;52.054;-9.494;2023-05-12T00:46:40;102059.81;;;21.78;39.47
57616;BME280;43816;52.054;-9.494;2023-05-12T00:46:51;102058.06;;;21.77;39.55
57616;BME280;43816;52.054;-9.494;2023-05-12T00:47:02;102063.94;;;21.83;39.44
57616;BME280;43816;52.054;-9.494;2023-05-12T00:47:13;102040.41;;;21.72;39.56
57616;BME280;43816;52.054;-9.494;2023-05-12T00:47:23;102025.78;;;21.63;39.64
57616;BME280;43816;52.054;-9.494;2023-05-12T00:47:34;102034.72;;;21.65;39.66
57616;BME280;43816;52.054;-9.494;2023-05-12T00:47:44;102059.81;;;21.78;39.64
57616;BME280;43816;52.054;-9.494;2023-05-12T00:47:55;102059.47;;;21.81;39.56
57616;BME280;43816;52.054;-9.494;2023-05-12T00:48:06;102058.06;;;21.77;39.37
57616;BME280;43816;52.054;-9.494;2023-05-12T00:48:17;102060.81;;;21.77;39.45
57616;BME280;43816;52.054;-9.494;2023-05-12T00:48:27;102057.22;;;21.77;39.89
57616;BME280;43816;52.054;-9.494;2023-05-12T00:48:37;102065.97;;;21.80;39.58
57616;BME280;43816;52.054;-9.494;2023-05-12T00:48:48;102048.47;;;21.73;39.74
57616;BME280;43816;52.054;-9.494;2023-05-12T00:48:58;102055.34;;;21.77;39.40
57616;BME280;43816;52.054;-9.494;2023-05-12T00:49:08;102052.59;;;21.77;39.69
57616;BME280;43816;52.054;-9.494;2023-05-12T00:49:19;102058.06;;;21.77;39.57
57616;BME280;43816;52.054;-9.494;2023-05-12T00:49:30;102053.59;;;21.76;39.59
57616;BME280;43816;52.054;-9.494;2023-05-12T00:49:41;102044.31;;;21.69;39.66
57616;BME280;43816;52.054;-9.494;2023-05-12T00:49:51;102059.66;;;21.80;39.87
57616;BME280;43816;52.054;-9.494;2023-05-12T00:50:03;102061.50;;;21.79;39.45
57616;BME280;43816;52.054;-9.494;2023-05-12T00:50:14;102059.97;;;21.77;39.57
57616;BME280;43816;52.054;-9.494;2023-05-12T00:50:25;102056.34;;;21.76;39.63
57616;BME280;43816;52.054;-9.494;2023-05-12T00:50:35;102059.06;;;21.76;39.40
57616;BME280;43816;52.054;-9.494;2023-05-12T00:50:46;102047.44;;;21.74;39.65
57616;BME280;43816;52.054;-9.494;2023-05-12T00:50:56;102054.09;;;21.72;39.53
57616;BME280;43816;52.054;-9.494;2023-05-12T00:51:07;102058.06;;;21.77;39.41
57616;BME280;43816;52.054;-9.494;2023-05-12T00:51:17;102063.22;;;21.80;39.62
57616;BME280;43816;52.054;-9.494;2023-05-12T00:51:28;102035.88;;;21.62;39.64
57616;BME280;43816;52.054;-9.494;2023-05-12T00:51:38;102068.88;;;21.79;39.67
57616;BME280;43816;52.054;-9.494;2023-05-12T00:51:49;102060.44;;;21.72;39.64
57616;BME280;43816;52.054;-9.494;2023-05-12T00:52:01;102072.47;;;21.79;39.64
57616;BME280;43816;52.054;-9.494;2023-05-12T00:52:12;102068.72;;;21.80;39.43
57616;BME280;43816;52.054;-9.494;2023-05-12T00:52:22;102051.84;;;21.67;39.97
57616;BME280;43816;52.054;-9.494;2023-05-12T00:52:33;102055.97;;;21.71;39.66
57616;BME280;43816;52.054;-9.494;2023-05-12T00:52:43;102054.63;;;21.75;39.56
57616;BME280;43816;52.054;-9.494;2023-05-12T00:52:55;102061.97;;;21.75;39.42
57616;BME280;43816;52.054;-9.494;2023-05-12T00:53:08;102066.28;;;21.77;39.59
57616;BME280;43816;52.054;-9.494;2023-05-12T00:53:18;102053.06;;;21.73;39.65
57616;BME280;43816;52.054;-9.494;2023-05-12T00:53:30;102038.53;;;21.72;39.54
57616;BME280;43816;52.054;-9.494;2023-05-12T00:53:40;102064.41;;;21.78;39.42
57616;BME280;43816;52.054;-9.494;2023-05-12T00:53:51;102056.69;;;21.73;39.66
57616;BME280;43816;52.054;-9.494;2023-05-12T00:54:02;102050.31;;;21.73;39.54
57616;BME280;43816;52.054;-9.494;2023-05-12T00:54:12;102064.25;;;21.79;39.48